createdAt,value
2023-03-21T00:01:29.859Z,8.21
2023-03-21T00:03:56.672Z,8.19
2023-03-21T00:06:23.395Z,8.16
2023-03-21T00:08:50.276Z,8.15
2023-03-21T00:11:17.010Z,8.16
2023-03-21T00:13:43.929Z,8.13
2023-03-21T00:16:19.559Z,8.10
2023-03-21T00:18:52.442Z,8.11
2023-03-21T00:21:48.777Z,8.09
2023-03-21T00:24:08.153Z,8.09
2023-03-21T00:26:35.681Z,8.11
2023-03-21T00:29:02.543Z,8.04
2023-03-21T00:31:29.189Z,8.07
2023-03-21T00:33:56.035Z,8.04
2023-03-21T00:36:26.148Z,8.04
2023-03-21T00:38:53.697Z,8.04
2023-03-21T00:41:35.071Z,8.04
2023-03-21T00:44:07.193Z,8.02
2023-03-21T00:46:44.004Z,8.02
2023-03-21T00:49:12.113Z,8.00
2023-03-21T00:51:38.731Z,7.97
2023-03-21T00:54:05.822Z,7.98
2023-03-21T00:56:32.979Z,7.97
2023-03-21T00:58:59.707Z,7.99
2023-03-21T01:01:31.957Z,7.97
2023-03-21T01:04:07.768Z,7.96
2023-03-21T01:06:41.021Z,7.96
2023-03-21T01:09:14.544Z,7.96
2023-03-21T01:11:42.375Z,7.95
2023-03-21T01:14:21.406Z,7.90
2023-03-21T01:16:50.813Z,7.86
2023-03-21T01:19:50.228Z,7.90
2023-03-21T01:22:06.568Z,7.91
2023-03-21T01:24:35.600Z,7.91
2023-03-21T01:27:04.440Z,7.91
2023-03-21T01:29:31.125Z,7.91
2023-03-21T01:31:57.760Z,7.93
2023-03-21T01:34:24.438Z,7.91
2023-03-21T01:36:51.171Z,7.91
2023-03-21T01:39:17.955Z,7.93
2023-03-21T01:41:44.995Z,7.92
2023-03-21T01:44:19.413Z,7.92
2023-03-21T01:47:10.528Z,7.92
2023-03-21T01:49:48.058Z,7.92
2023-03-21T01:52:33.492Z,7.92
2023-03-21T01:55:05.446Z,7.92
2023-03-21T01:57:47.248Z,7.91
2023-03-21T02:00:26.894Z,7.90
2023-03-21T02:03:06.315Z,7.91
2023-03-21T02:05:44.642Z,7.91
2023-03-21T02:08:13.292Z,7.92
2023-03-21T02:10:42.094Z,7.89
2023-03-21T02:13:09.931Z,7.89
2023-03-21T02:15:39.187Z,7.88
2023-03-21T02:18:20.322Z,7.90
2023-03-21T02:21:29.097Z,7.89
2023-03-21T02:24:22.805Z,7.87
2023-03-21T02:27:15.891Z,7.85
2023-03-21T02:30:01.462Z,7.86
2023-03-21T02:32:37.343Z,7.83
2023-03-21T02:35:08.253Z,7.83
2023-03-21T02:37:58.299Z,7.83
2023-03-21T02:40:32.860Z,7.81
2023-03-21T02:43:02.280Z,7.82
2023-03-21T02:45:47.957Z,7.84
2023-03-21T02:48:28.059Z,7.83
2023-03-21T02:51:01.838Z,7.83
2023-03-21T02:53:37.089Z,7.84
2023-03-21T02:56:04.884Z,7.84
2023-03-21T02:58:32.646Z,7.84
2023-03-21T03:00:59.250Z,7.83
2023-03-21T03:03:33.886Z,7.85
2023-03-21T03:06:04.209Z,7.84
2023-03-21T03:08:43.203Z,7.84
2023-03-21T03:11:25.252Z,7.84
2023-03-21T03:14:21.180Z,7.83
2023-03-21T03:17:17.600Z,7.83
2023-03-21T03:20:16.813Z,7.85
2023-03-21T03:23:13.359Z,7.85
2023-03-21T03:25:47.911Z,7.85
2023-03-21T03:28:18.520Z,7.86
2023-03-21T03:31:04.942Z,7.86
2023-03-21T03:33:39.016Z,7.86
2023-03-21T03:36:14.799Z,7.87
2023-03-21T03:38:47.164Z,7.88
2023-03-21T03:41:19.748Z,7.88
2023-03-21T03:43:51.106Z,7.87
2023-03-21T03:46:32.224Z,7.88
2023-03-21T03:49:08.044Z,7.88
2023-03-21T03:51:48.117Z,7.88
2023-03-21T03:54:20.622Z,7.87
2023-03-21T03:56:47.652Z,7.84
2023-03-21T03:59:19.431Z,7.87
2023-03-21T04:01:46.285Z,7.87
2023-03-21T04:04:13.881Z,7.87
2023-03-21T04:06:41.534Z,7.88
2023-03-21T04:09:19.009Z,7.89
2023-03-21T04:11:47.393Z,7.89
2023-03-21T04:14:14.247Z,7.89
2023-03-21T04:16:41.082Z,7.90
2023-03-21T04:19:07.823Z,7.91
2023-03-21T04:21:34.471Z,7.91
2023-03-21T04:24:01.392Z,7.91
2023-03-21T04:26:33.016Z,7.91
2023-03-21T04:29:03.622Z,7.91
2023-03-21T04:31:33.955Z,7.89
2023-03-21T04:34:02.681Z,7.90
2023-03-21T04:36:39.075Z,7.91
2023-03-21T04:39:12.493Z,7.91
2023-03-21T04:41:40.852Z,7.93
2023-03-21T04:44:08.365Z,7.90
2023-03-21T04:46:35.816Z,7.87
2023-03-21T04:49:02.966Z,7.90
2023-03-21T04:51:30.060Z,7.93
2023-03-21T04:53:59.957Z,7.94
2023-03-21T04:56:32.421Z,7.92
2023-03-21T04:59:00.739Z,7.92
2023-03-21T05:01:30.900Z,7.94
2023-03-21T05:04:02.488Z,7.93
2023-03-21T05:06:29.477Z,7.95
2023-03-21T05:09:00.246Z,7.93
2023-03-21T05:11:28.752Z,7.93
2023-03-21T05:13:55.425Z,7.95
2023-03-21T05:16:26.816Z,7.94
2023-03-21T05:18:55.638Z,7.95
2023-03-21T05:21:23.570Z,7.94
2023-03-21T05:23:56.035Z,7.94
2023-03-21T05:26:23.213Z,7.94
2023-03-21T05:28:50.641Z,7.93
2023-03-21T05:31:18.847Z,7.95
2023-03-21T05:33:46.231Z,7.94
2023-03-21T05:36:13.952Z,7.93
2023-03-21T05:38:46.208Z,7.93
2023-03-21T05:41:14.516Z,7.94
2023-03-21T05:43:41.897Z,7.96
2023-03-21T05:46:09.443Z,7.94
2023-03-21T05:48:36.628Z,7.95
2023-03-21T05:51:04.275Z,7.95
2023-03-21T05:53:31.068Z,7.96
2023-03-21T05:55:57.778Z,7.94
2023-03-21T05:58:24.716Z,7.93
2023-03-21T06:00:51.433Z,7.90
2023-03-21T06:03:18.662Z,7.93
2023-03-21T06:05:45.405Z,7.94
2023-03-21T06:08:12.171Z,7.96
2023-03-21T06:10:39.320Z,7.96
2023-03-21T06:13:05.998Z,7.98
2023-03-21T06:15:32.830Z,7.99
2023-03-21T06:17:59.489Z,7.99
2023-03-21T06:20:26.436Z,8.00
2023-03-21T06:22:53.178Z,7.97
2023-03-21T06:25:19.983Z,7.97
2023-03-21T06:27:46.696Z,8.00
2023-03-21T06:30:14.120Z,7.99
2023-03-21T06:32:40.855Z,8.03
2023-03-21T06:35:07.760Z,8.04
2023-03-21T06:37:34.591Z,8.07
2023-03-21T06:40:01.331Z,8.10
2023-03-21T06:42:28.056Z,8.12
2023-03-21T06:44:54.691Z,8.12
2023-03-21T06:47:21.369Z,8.13
2023-03-21T06:49:48.120Z,8.14
2023-03-21T06:52:14.786Z,8.14
2023-03-21T06:54:41.529Z,8.15
2023-03-21T06:57:08.204Z,8.15
2023-03-21T06:59:36.063Z,8.09
2023-03-21T07:02:02.885Z,8.17
2023-03-21T07:04:29.627Z,8.21
2023-03-21T07:06:56.534Z,8.22
2023-03-21T07:09:24.877Z,8.24
2023-03-21T07:11:53.617Z,8.22
2023-03-21T07:14:20.875Z,8.27
2023-03-21T07:16:47.570Z,8.29
2023-03-21T07:19:15.838Z,8.32
2023-03-21T07:21:42.537Z,8.37
2023-03-21T07:24:09.369Z,8.39
2023-03-21T07:26:36.356Z,8.41
2023-03-21T07:29:03.044Z,8.39
2023-03-21T07:31:29.844Z,8.41
2023-03-21T07:33:56.787Z,8.42
2023-03-21T07:36:23.409Z,8.48
2023-03-21T07:38:50.088Z,8.53
2023-03-21T07:43:43.905Z,8.61
2023-03-21T07:46:13.553Z,8.63
2023-03-21T07:48:40.281Z,8.67
2023-03-21T07:51:07.372Z,8.71
2023-03-21T07:53:34.001Z,8.70
2023-03-21T07:56:00.667Z,8.67
2023-03-21T07:58:28.618Z,8.66
2023-03-21T08:00:58.492Z,8.77
2023-03-21T08:03:26.550Z,8.77
2023-03-21T08:05:53.298Z,8.83
2023-03-21T08:08:19.916Z,8.89
2023-03-21T08:10:46.809Z,8.92
2023-03-21T08:13:13.696Z,8.95
2023-03-21T08:15:42.426Z,10.39
2023-03-21T08:18:10.149Z,10.51
2023-03-21T08:20:36.975Z,9.85
2023-03-21T08:23:04.040Z,9.61
2023-03-21T08:25:30.966Z,9.49
2023-03-21T08:27:57.608Z,9.46
2023-03-21T08:30:28.212Z,9.37
2023-03-21T08:33:01.450Z,9.38
2023-03-21T08:35:28.855Z,9.42
2023-03-21T08:37:55.582Z,9.50
2023-03-21T08:40:22.504Z,9.53
2023-03-21T08:42:49.333Z,9.58
2023-03-21T08:45:17.434Z,9.63
2023-03-21T08:47:44.906Z,9.68
2023-03-21T08:50:15.674Z,9.70
2023-03-21T08:52:42.621Z,9.76
2023-03-21T08:55:10.015Z,9.82
2023-03-21T08:57:36.878Z,9.80
2023-03-21T09:00:13.115Z,9.75
2023-03-21T09:02:44.041Z,9.76
2023-03-21T09:05:14.838Z,9.86
2023-03-21T09:07:41.767Z,9.93
2023-03-21T09:10:21.021Z,10.01
2023-03-21T09:12:50.174Z,10.03
2023-03-21T09:15:18.059Z,10.09
2023-03-21T09:17:50.352Z,10.14
2023-03-21T09:20:21.139Z,10.18
2023-03-21T09:22:49.251Z,10.22
2023-03-21T09:25:16.788Z,10.25
2023-03-21T09:27:45.989Z,10.35
2023-03-21T09:30:18.575Z,10.44
2023-03-21T09:32:50.540Z,10.43
2023-03-21T09:35:18.901Z,10.51
2023-03-21T09:37:49.161Z,10.55
2023-03-21T09:40:40.177Z,10.64
2023-03-21T09:43:22.049Z,10.60
2023-03-21T09:45:58.400Z,11.64
2023-03-21T09:48:54.408Z,11.12
2023-03-21T09:51:23.843Z,11.03
2023-03-21T09:53:52.032Z,11.00
2023-03-21T09:56:19.151Z,10.96
2023-03-21T09:58:55.551Z,11.62
2023-03-21T10:01:30.041Z,11.37
2023-03-21T10:04:00.462Z,11.29
2023-03-21T10:06:32.053Z,11.21
2023-03-21T10:09:12.678Z,11.26
2023-03-21T10:11:50.520Z,11.24
2023-03-21T10:14:26.215Z,11.24
2023-03-21T10:16:58.217Z,11.12
2023-03-21T10:19:27.346Z,11.29
2023-03-21T10:22:01.282Z,11.36
2023-03-21T10:24:31.972Z,11.52
2023-03-21T10:26:59.286Z,11.26
2023-03-21T10:29:37.181Z,11.42
2023-03-21T10:32:04.258Z,11.48
2023-03-21T10:34:32.814Z,11.62
2023-03-21T10:37:02.228Z,11.66
2023-03-21T10:39:35.721Z,11.73
2023-03-21T10:42:02.786Z,11.81
2023-03-21T10:44:34.759Z,11.88
2023-03-21T10:47:09.497Z,11.94
2023-03-21T10:50:05.776Z,11.90
2023-03-21T10:52:28.105Z,11.94
2023-03-21T10:55:07.664Z,11.98
2023-03-21T10:57:38.133Z,11.99
2023-03-21T11:00:17.336Z,12.05
2023-03-21T11:02:49.336Z,12.13
2023-03-21T11:05:35.987Z,12.12
2023-03-21T11:08:11.495Z,12.23
2023-03-21T11:11:02.970Z,12.32
2023-03-21T11:13:56.561Z,12.38
2023-03-21T11:16:27.560Z,12.47
2023-03-21T11:19:01.411Z,12.38
2023-03-21T11:21:29.776Z,12.29
2023-03-21T11:23:57.513Z,12.30
2023-03-21T11:26:31.212Z,12.38
2023-03-21T11:28:58.800Z,12.53
2023-03-21T11:31:39.103Z,12.70
2023-03-21T11:34:08.428Z,12.76
2023-03-21T11:36:39.272Z,12.73
2023-03-21T11:39:11.762Z,12.72
2023-03-21T11:41:41.364Z,12.88
2023-03-21T11:44:26.548Z,12.98
2023-03-21T11:46:54.398Z,12.95
2023-03-21T11:49:22.129Z,13.00
2023-03-21T11:52:00.679Z,13.09
2023-03-21T11:55:07.791Z,13.16
2023-03-21T11:57:44.724Z,13.18
2023-03-21T12:00:29.934Z,13.16
2023-03-21T12:03:35.321Z,13.29
2023-03-21T12:06:39.581Z,13.36
2023-03-21T12:09:17.694Z,13.40
2023-03-21T12:11:57.477Z,13.47
2023-03-21T12:14:24.138Z,13.48
2023-03-21T12:17:05.263Z,13.50
2023-03-21T12:19:54.688Z,13.58
2023-03-21T12:22:24.456Z,13.64
2023-03-21T12:24:58.832Z,13.71
2023-03-21T12:27:37.706Z,13.68
2023-03-21T12:30:12.806Z,13.76
2023-03-21T12:33:09.164Z,13.78
2023-03-21T12:35:47.693Z,13.79
2023-03-21T12:38:26.276Z,13.92
2023-03-21T12:41:11.770Z,13.86
2023-03-21T12:43:48.310Z,13.91
2023-03-21T12:46:27.477Z,14.11
2023-03-21T12:48:56.912Z,14.14
2023-03-21T12:51:29.658Z,14.18
2023-03-21T12:54:38.217Z,14.38
2023-03-21T12:57:18.001Z,14.43
2023-03-21T12:59:54.492Z,14.43
2023-03-21T13:02:32.173Z,14.35
2023-03-21T13:05:18.152Z,14.39
2023-03-21T13:07:51.856Z,14.37
2023-03-21T13:10:23.221Z,14.23
2023-03-21T13:12:58.936Z,14.33
2023-03-21T13:15:44.957Z,14.29
2023-03-21T13:18:31.944Z,14.19
2023-03-21T13:21:03.016Z,14.22
2023-03-21T13:23:37.863Z,14.31
2023-03-21T13:26:09.667Z,14.42
2023-03-21T13:28:39.914Z,14.51
2023-03-21T13:31:18.988Z,14.50
2023-03-21T13:33:49.192Z,14.49
2023-03-21T13:36:28.291Z,14.50
2023-03-21T13:39:01.242Z,14.67
2023-03-21T13:41:40.730Z,14.67
2023-03-21T13:44:36.660Z,14.40
2023-03-21T13:47:06.478Z,14.66
2023-03-21T13:49:36.934Z,14.81
2023-03-21T13:52:28.030Z,14.90
2023-03-21T13:54:56.913Z,14.98
2023-03-21T13:57:30.588Z,14.99
2023-03-21T14:00:16.919Z,14.84
2023-03-21T14:03:13.547Z,14.88
2023-03-21T14:05:40.442Z,14.92
2023-03-21T14:08:15.688Z,14.94
2023-03-21T14:10:49.218Z,14.80
2023-03-21T14:13:19.263Z,14.83
2023-03-21T14:15:56.306Z,14.93
2023-03-21T14:18:28.481Z,15.02
2023-03-21T14:21:36.021Z,14.96
2023-03-21T14:24:07.518Z,14.96
2023-03-21T14:26:41.434Z,14.82
2023-03-21T14:29:25.039Z,15.05
2023-03-21T14:31:54.789Z,15.14
2023-03-21T14:34:22.930Z,15.24
2023-03-21T14:36:57.686Z,15.35
2023-03-21T14:39:33.496Z,15.38
2023-03-21T14:42:06.239Z,15.30
2023-03-21T14:44:54.770Z,15.37
2023-03-21T14:47:25.707Z,15.30
2023-03-21T14:49:52.836Z,15.37
2023-03-21T14:52:27.347Z,15.32
2023-03-21T14:54:55.431Z,15.37
2023-03-21T14:57:25.808Z,15.30
2023-03-21T14:59:54.987Z,15.34
2023-03-21T15:02:21.732Z,15.32
2023-03-21T15:04:59.645Z,15.40
2023-03-21T15:07:26.436Z,15.41
2023-03-21T15:09:55.545Z,15.46
2023-03-21T15:12:22.232Z,15.49
2023-03-21T15:14:49.373Z,15.48
2023-03-21T15:17:16.561Z,15.53
2023-03-21T15:19:43.885Z,15.57
2023-03-21T15:22:15.344Z,15.60
2023-03-21T15:24:47.760Z,15.55
2023-03-21T15:27:17.690Z,15.32
2023-03-21T15:29:46.203Z,15.41
2023-03-21T15:32:19.358Z,15.50
2023-03-21T15:34:46.766Z,15.40
2023-03-21T15:37:17.842Z,15.52
2023-03-21T15:39:45.369Z,15.46
2023-03-21T15:42:40.465Z,15.52
2023-03-21T15:45:22.604Z,15.45
2023-03-21T15:47:49.347Z,15.52
2023-03-21T15:50:32.322Z,15.51
2023-03-21T15:53:01.602Z,15.48
2023-03-21T15:55:36.233Z,15.44
2023-03-21T15:58:13.317Z,15.30
2023-03-21T16:00:42.285Z,15.40
2023-03-21T16:03:20.929Z,15.46
2023-03-21T16:06:12.623Z,15.42
2023-03-21T16:08:50.965Z,15.44
2023-03-21T16:11:27.162Z,15.22
2023-03-21T16:13:55.412Z,15.28
2023-03-21T16:16:28.393Z,15.32
2023-03-21T16:18:58.565Z,15.35
2023-03-21T16:21:28.559Z,15.34
2023-03-21T16:23:56.226Z,15.32
2023-03-21T16:26:25.660Z,15.15
2023-03-21T16:28:53.091Z,15.24
2023-03-21T16:31:25.389Z,15.25
2023-03-21T16:33:52.296Z,15.25
2023-03-21T16:36:25.698Z,15.23
2023-03-21T16:38:54.030Z,15.22
2023-03-21T16:41:22.717Z,15.23
2023-03-21T16:43:50.642Z,15.20
2023-03-21T16:46:20.217Z,15.17
2023-03-21T16:48:49.941Z,15.17
2023-03-21T16:51:19.323Z,15.17
2023-03-21T16:53:46.286Z,15.15
2023-03-21T16:56:30.293Z,15.14
2023-03-21T16:58:57.433Z,15.11
2023-03-21T17:01:30.206Z,15.08
2023-03-21T17:04:00.485Z,15.06
2023-03-21T17:06:29.471Z,14.99
2023-03-21T17:08:58.207Z,15.01
2023-03-21T17:11:27.460Z,14.99
2023-03-21T17:13:55.146Z,14.98
2023-03-21T17:16:26.730Z,14.97
2023-03-21T17:18:54.965Z,14.95
2023-03-21T17:21:24.119Z,14.92
2023-03-21T17:23:51.905Z,14.91
2023-03-21T17:26:21.866Z,14.91
2023-03-21T17:28:49.259Z,14.88
2023-03-21T17:31:21.181Z,14.86
2023-03-21T17:33:48.606Z,14.82
2023-03-21T17:36:36.417Z,14.80
2023-03-21T17:39:09.009Z,14.77
2023-03-21T17:41:35.872Z,14.74
2023-03-21T17:44:03.208Z,14.72
2023-03-21T17:46:37.158Z,14.70
2023-03-21T17:49:05.031Z,14.66
2023-03-21T17:51:33.154Z,14.64
2023-03-21T17:54:00.804Z,14.61
2023-03-21T17:56:31.098Z,14.59
2023-03-21T17:59:00.157Z,14.54
2023-03-21T18:01:27.534Z,14.49
2023-03-21T18:03:56.934Z,14.46
2023-03-21T18:06:26.610Z,14.41
2023-03-21T18:08:54.928Z,14.39
2023-03-21T18:11:24.392Z,14.35
2023-03-21T18:13:51.344Z,14.31
2023-03-21T18:16:23.426Z,14.29
2023-03-21T18:18:53.924Z,14.23
2023-03-21T18:21:22.727Z,14.21
2023-03-21T18:23:50.146Z,14.18
2023-03-21T18:26:23.824Z,14.13
2023-03-21T18:29:39.266Z,14.09
2023-03-21T18:31:38.127Z,14.06
2023-03-21T18:34:04.864Z,14.02
2023-03-21T18:36:31.741Z,13.99
2023-03-21T18:38:58.937Z,14.26
2023-03-21T18:41:26.133Z,14.12
2023-03-21T18:44:05.593Z,14.02
2023-03-21T18:46:47.245Z,13.98
2023-03-21T18:52:05.405Z,13.91
2023-03-21T18:54:33.236Z,13.87
2023-03-21T18:59:47.801Z,13.81
2023-03-21T19:02:16.294Z,13.77
2023-03-21T19:04:43.615Z,13.74
2023-03-21T19:07:10.873Z,13.70
2023-03-21T19:12:26.383Z,13.62
2023-03-21T19:14:53.364Z,13.58
2023-03-21T19:18:21.872Z,13.55
2023-03-21T19:20:07.359Z,13.51
2023-03-21T19:22:34.049Z,13.48
2023-03-21T19:25:00.722Z,13.39
2023-03-21T19:27:27.725Z,13.35
2023-03-21T19:30:10.654Z,13.34
2023-03-21T19:32:39.896Z,13.29
2023-03-21T19:35:07.498Z,13.26
2023-03-21T19:37:36.238Z,13.23
2023-03-21T19:40:05.481Z,13.18
2023-03-21T19:42:32.629Z,13.13
2023-03-21T19:44:59.496Z,13.09
2023-03-21T19:47:26.399Z,13.03
2023-03-21T19:52:41.119Z,12.94
2023-03-21T19:55:08.486Z,12.90
2023-03-21T19:57:35.337Z,12.86
2023-03-21T20:00:02.446Z,12.82
2023-03-21T20:02:37.153Z,12.79
2023-03-21T20:05:06.097Z,12.75
2023-03-21T20:07:33.139Z,12.69
2023-03-21T20:10:00.319Z,12.67
2023-03-21T20:12:27.677Z,12.61
2023-03-21T20:15:07.200Z,12.60
2023-03-21T20:17:39.031Z,12.56
2023-03-21T20:20:10.973Z,12.53
2023-03-21T20:23:05.153Z,12.49
2023-03-21T20:25:24.697Z,12.46
2023-03-21T20:28:09.494Z,12.43
2023-03-21T20:30:38.572Z,12.40
2023-03-21T20:33:05.447Z,12.35
2023-03-21T20:36:19.771Z,12.33
2023-03-21T20:38:20.670Z,12.29
2023-03-21T20:40:48.105Z,12.24
2023-03-21T20:44:06.494Z,12.23
2023-03-21T20:46:04.028Z,12.19
2023-03-21T20:48:31.258Z,12.34
2023-03-21T20:51:39.891Z,12.19
2023-03-21T20:53:49.514Z,12.11
2023-03-21T20:56:16.262Z,12.06
2023-03-21T20:59:04.496Z,12.05
2023-03-21T21:01:29.606Z,11.99
2023-03-21T21:03:57.549Z,11.93
2023-03-21T21:06:24.482Z,11.85
2023-03-21T21:08:51.180Z,11.86
2023-03-21T21:12:04.727Z,11.81
2023-03-21T21:14:06.549Z,11.79
2023-03-21T21:16:33.269Z,11.78
2023-03-21T21:19:00.859Z,11.74
2023-03-21T21:21:28.017Z,11.73
2023-03-21T21:23:54.786Z,11.71
2023-03-21T21:26:21.458Z,11.70
2023-03-21T21:28:48.590Z,11.68
2023-03-21T21:31:16.798Z,11.67
2023-03-21T21:33:47.511Z,11.62
2023-03-21T21:36:14.215Z,11.60
2023-03-21T21:38:43.708Z,11.59
2023-03-21T21:41:21.560Z,11.57
2023-03-21T21:43:48.408Z,11.55
2023-03-21T21:46:15.261Z,11.53
2023-03-21T21:48:42.899Z,11.48
2023-03-21T21:51:10.134Z,11.46
2023-03-21T21:53:37.058Z,11.45
2023-03-21T21:56:06.342Z,11.43
2023-03-21T21:58:34.007Z,11.43
2023-03-21T22:01:01.974Z,11.40
2023-03-21T22:03:36.479Z,11.39
2023-03-21T22:06:04.902Z,11.37
2023-03-21T22:08:31.768Z,11.35
2023-03-21T22:11:00.700Z,11.33
2023-03-21T22:13:28.002Z,11.32
2023-03-21T22:15:55.101Z,11.29
2023-03-21T22:18:22.474Z,11.28
2023-03-21T22:20:49.138Z,11.25
2023-03-21T22:23:15.809Z,11.24
2023-03-21T22:25:43.534Z,11.22
2023-03-21T22:28:10.520Z,11.19
2023-03-21T22:30:37.662Z,11.19
2023-03-21T22:33:09.640Z,11.17
2023-03-21T22:35:37.527Z,11.14
2023-03-21T22:38:04.189Z,11.12
2023-03-21T22:40:31.050Z,11.09
2023-03-21T22:42:57.672Z,11.05
2023-03-21T22:45:24.305Z,11.04
2023-03-21T22:47:51.390Z,11.02
2023-03-21T22:50:18.101Z,11.00
2023-03-21T22:52:44.770Z,10.97
2023-03-21T22:55:12.851Z,10.96
2023-03-21T22:57:39.525Z,10.92
2023-03-21T23:00:14.054Z,10.90
2023-03-21T23:02:41.841Z,10.88
2023-03-21T23:05:10.105Z,10.86
2023-03-21T23:07:39.843Z,10.85
2023-03-21T23:10:07.730Z,10.82
2023-03-21T23:12:34.855Z,10.79
2023-03-21T23:15:02.466Z,10.77
2023-03-21T23:17:29.278Z,10.74
2023-03-21T23:19:56.309Z,10.72
2023-03-21T23:22:22.987Z,10.69
2023-03-21T23:24:49.858Z,10.67
2023-03-21T23:27:18.181Z,10.66
2023-03-21T23:29:45.456Z,10.64
2023-03-21T23:32:16.056Z,10.59
2023-03-21T23:34:42.782Z,10.58
2023-03-21T23:37:09.470Z,10.56
2023-03-21T23:39:36.241Z,10.55
2023-03-21T23:42:02.930Z,10.52
2023-03-21T23:44:29.766Z,10.52
2023-03-21T23:46:56.396Z,10.49
2023-03-21T23:49:23.141Z,10.46
2023-03-21T23:51:50.146Z,10.45
2023-03-21T23:54:17.056Z,10.43
2023-03-21T23:56:44.014Z,10.40
2023-03-21T23:59:10.931Z,10.39
